Time;durP1;ratioP1;P1;durP2;ratioP2;P2;SDS_P1;SDS_P2;PMS_P1;PMS_P2;Temp;Humidity;BMP_temperature;BMP_pressure;BME280_temperature;BME280_humidity;BME280_pressure;Samples;Min_cycle;Max_cycle;Signal;HPM_P1;HPM_P2
2022/07/27 00:02:17;;;;;;;;;;;16.30;99.90;;;;;;5097441;28;19908;-72
2022/07/27 00:04:42;;;;;;;;;;;16.30;99.90;;;;;;5096715;28;19919;-73
2022/07/27 00:07:08;;;;;;;;;;;16.30;99.90;;;;;;5096801;28;19915;-73
2022/07/27 00:09:33;;;;;;;;;;;16.30;99.90;;;;;;5085660;28;19908;-73
2022/07/27 00:11:59;;;;;;;;;;;16.30;99.90;;;;;;5076430;28;19938;-72
2022/07/27 00:14:24;;;;;;;;;;;16.30;99.90;;;;;;5076570;28;19904;-72
2022/07/27 00:16:50;;;;;;;;;;;16.40;99.90;;;;;;5076148;28;19930;-73
2022/07/27 00:19:15;;;;;;;;;;;16.40;99.90;;;;;;5084535;28;19904;-73
2022/07/27 00:21:41;;;;;;;;;;;16.40;99.90;;;;;;5095260;28;19947;-73
2022/07/27 00:24:07;;;;;;;;;;;16.40;99.90;;;;;;5096440;28;19946;-73
2022/07/27 00:26:32;;;;;;;;;;;16.40;99.90;;;;;;5096364;28;19904;-73
2022/07/27 00:28:58;;;;;;;;;;;16.40;99.90;;;;;;5090390;28;20330;-73
2022/07/27 00:31:23;;;;;;;;;;;16.30;99.90;;;;;;5076080;28;19923;-72
2022/07/27 00:33:49;;;;;;;;;;;16.30;99.90;;;;;;5087061;28;19923;-73
2022/07/27 00:36:14;;;;;;;;;;;16.30;99.90;;;;;;5096166;28;19908;-73
2022/07/27 00:38:40;;;;;;;;;;;16.30;99.90;;;;;;5093199;28;19958;-73
2022/07/27 00:41:06;;;;;;;;;;;16.30;99.90;;;;;;5075951;28;20368;-72
2022/07/27 00:43:32;;;;;;;;;;;16.30;99.90;;;;;;5075824;28;19904;-72
2022/07/27 00:45:58;;;;;;;;;;;16.30;99.90;;;;;;5075761;28;19996;-72
2022/07/27 00:48:23;;;;;;;;;;;16.20;99.90;;;;;;5076224;28;19956;-73
2022/07/27 00:50:49;;;;;;;;;;;16.20;99.90;;;;;;5095993;28;19912;-72
2022/07/27 00:53:15;;;;;;;;;;;16.00;99.90;;;;;;5096464;28;20336;-73
2022/07/27 00:55:41;;;;;;;;;;;15.90;99.90;;;;;;5096666;28;20264;-74
2022/07/27 00:58:10;;;;;;;;;;;15.90;99.90;;;;;;5077612;28;19904;-74
2022/07/27 01:00:36;;;;;;;;;;;15.80;99.90;;;;;;5076874;28;19957;-73
2022/07/27 01:03:02;;;;;;;;;;;15.90;99.90;;;;;;5079625;28;19912;-73
2022/07/27 01:05:27;;;;;;;;;;;15.90;99.90;;;;;;5095321;28;19912;-73
2022/07/27 01:07:53;;;;;;;;;;;15.90;99.90;;;;;;5095353;28;20257;-73
2022/07/27 01:10:18;;;;;;;;;;;15.90;99.90;;;;;;5090013;28;19914;-73
2022/07/27 01:12:44;;;;;;;;;;;15.90;99.90;;;;;;5095087;28;19962;-73
2022/07/27 01:15:11;;;;;;;;;;;15.90;99.90;;;;;;5095187;28;19953;-73
2022/07/27 01:17:36;;;;;;;;;;;15.90;99.90;;;;;;5094587;28;19908;-73
2022/07/27 01:20:02;;;;;;;;;;;15.90;99.90;;;;;;5095230;28;20370;-73
2022/07/27 01:22:28;;;;;;;;;;;15.90;99.90;;;;;;5093843;28;19907;-73
2022/07/27 01:24:53;;;;;;;;;;;15.90;99.90;;;;;;5095015;28;19949;-73
2022/07/27 01:27:19;;;;;;;;;;;15.80;99.90;;;;;;5094465;28;19912;-73
2022/07/27 01:29:44;;;;;;;;;;;15.80;99.90;;;;;;5094731;28;19912;-73
2022/07/27 01:32:10;;;;;;;;;;;15.80;99.90;;;;;;5094686;28;19911;-73
2022/07/27 01:34:36;;;;;;;;;;;15.80;99.90;;;;;;5094800;28;19904;-73
2022/07/27 01:37:02;;;;;;;;;;;15.80;99.90;;;;;;5094628;28;20338;-73
2022/07/27 01:39:27;;;;;;;;;;;15.80;99.90;;;;;;5078233;28;20007;-73
2022/07/27 01:41:53;;;;;;;;;;;15.80;99.90;;;;;;5074034;28;19905;-73
2022/07/27 01:44:18;;;;;;;;;;;15.90;99.90;;;;;;5056134;28;19908;-73
2022/07/27 01:46:44;;;;;;;;;;;15.90;99.90;;;;;;5092901;28;19911;-73
2022/07/27 01:49:09;;;;;;;;;;;15.90;99.90;;;;;;5094752;28;20289;-74
2022/07/27 01:51:35;;;;;;;;;;;15.90;99.90;;;;;;5095380;28;19911;-74
2022/07/27 01:54:00;;;;;;;;;;;15.90;99.90;;;;;;5095068;28;20405;-74
2022/07/27 01:56:26;;;;;;;;;;;15.90;99.90;;;;;;5078268;28;19995;-73
2022/07/27 01:58:51;;;;;;;;;;;15.80;99.90;;;;;;5074399;28;20042;-74
2022/07/27 02:01:17;;;;;;;;;;;15.90;99.90;;;;;;5074328;28;19904;-74
2022/07/27 02:03:43;;;;;;;;;;;15.90;99.90;;;;;;5074489;28;20284;-74
2022/07/27 02:06:08;;;;;;;;;;;15.90;99.90;;;;;;5086955;28;19955;-73
2022/07/27 02:08:34;;;;;;;;;;;15.90;99.90;;;;;;5094908;28;19911;-73
2022/07/27 02:13:46;;;;;;;;;;;15.90;99.90;;;;;;5076010;28;19930;-73
2022/07/27 02:16:12;;;;;;;;;;;15.90;99.90;;;;;;5074001;28;19905;-74
2022/07/27 02:18:37;;;;;;;;;;;15.90;99.90;;;;;;5074048;28;19904;-74
2022/07/27 02:21:04;;;;;;;;;;;15.90;99.90;;;;;;5074008;28;19957;-74
2022/07/27 02:23:30;;;;;;;;;;;15.90;99.90;;;;;;5072786;28;19944;-73
2022/07/27 02:25:56;;;;;;;;;;;15.80;99.90;;;;;;5094440;28;20363;-74
2022/07/27 02:28:22;;;;;;;;;;;15.90;99.90;;;;;;5094375;28;19914;-74
2022/07/27 02:30:47;;;;;;;;;;;15.80;99.90;;;;;;5083377;28;19908;-73
2022/07/27 02:33:13;;;;;;;;;;;15.80;99.90;;;;;;5055940;28;19911;-74
2022/07/27 02:35:39;;;;;;;;;;;15.80;99.90;;;;;;5073920;28;20265;-74
2022/07/27 02:38:04;;;;;;;;;;;15.80;99.90;;;;;;5073816;28;19911;-74
2022/07/27 02:40:30;;;;;;;;;;;15.70;99.90;;;;;;5081424;28;19915;-73
2022/07/27 02:42:55;;;;;;;;;;;15.70;99.90;;;;;;5094567;28;19904;-74
2022/07/27 02:45:21;;;;;;;;;;;15.70;99.90;;;;;;5093886;28;19914;-73
2022/07/27 02:47:46;;;;;;;;;;;15.60;99.90;;;;;;5093934;28;19911;-73
2022/07/27 02:50:12;;;;;;;;;;;15.70;99.90;;;;;;5088370;28;19912;-73
2022/07/27 02:52:38;;;;;;;;;;;15.60;99.90;;;;;;5073690;28;19905;-74
2022/07/27 02:55:03;;;;;;;;;;;15.70;99.90;;;;;;5073913;28;19904;-73
2022/07/27 02:57:29;;;;;;;;;;;15.70;99.90;;;;;;5073560;28;20402;-74
2022/07/27 02:59:55;;;;;;;;;;;15.70;99.90;;;;;;5081338;28;19907;-72
2022/07/27 03:02:20;;;;;;;;;;;15.70;99.90;;;;;;5093769;28;19970;-74
2022/07/27 03:04:46;;;;;;;;;;;15.70;99.90;;;;;;5093592;28;19942;-74
2022/07/27 03:07:11;;;;;;;;;;;15.70;99.90;;;;;;5093984;28;19904;-74
2022/07/27 03:09:37;;;;;;;;;;;15.70;99.90;;;;;;5088432;28;20383;-74
2022/07/27 03:12:02;;;;;;;;;;;15.70;99.90;;;;;;5073783;28;20026;-75
2022/07/27 03:14:28;;;;;;;;;;;15.70;99.90;;;;;;5073571;28;19916;-74
2022/07/27 03:16:54;;;;;;;;;;;15.70;99.90;;;;;;5073466;28;19912;-75
2022/07/27 03:19:19;;;;;;;;;;;15.60;99.90;;;;;;5075607;28;20288;-73
2022/07/27 03:21:45;;;;;;;;;;;15.50;99.90;;;;;;5093878;28;19911;-75
2022/07/27 03:24:10;;;;;;;;;;;15.50;99.90;;;;;;5093606;28;19911;-75
2022/07/27 03:26:36;;;;;;;;;;;15.50;99.90;;;;;;5093523;28;19904;-74
2022/07/27 03:29:01;;;;;;;;;;;15.50;99.90;;;;;;5093748;28;20348;-75
2022/07/27 03:31:27;;;;;;;;;;;15.60;99.90;;;;;;5073582;28;19935;-74
2022/07/27 03:33:52;;;;;;;;;;;15.60;99.90;;;;;;5073594;28;20356;-75
2022/07/27 03:36:18;;;;;;;;;;;15.60;99.90;;;;;;5073284;28;20331;-74
2022/07/27 03:38:43;;;;;;;;;;;15.60;99.90;;;;;;5073182;28;19911;-75
2022/07/27 03:41:09;;;;;;;;;;;15.70;99.90;;;;;;5090080;28;19919;-74
2022/07/27 03:43:35;;;;;;;;;;;15.70;99.90;;;;;;5093724;28;19911;-75
2022/07/27 03:46:00;;;;;;;;;;;15.60;99.90;;;;;;5093303;28;19911;-74
2022/07/27 03:48:26;;;;;;;;;;;15.70;99.90;;;;;;5093600;28;19908;-74
2022/07/27 03:50:52;;;;;;;;;;;15.70;99.90;;;;;;5079804;28;19939;-74
2022/07/27 03:53:20;;;;;;;;;;;15.70;99.90;;;;;;5076783;28;19904;-75
2022/07/27 03:55:48;;;;;;;;;;;15.70;99.90;;;;;;5076688;28;20446;-74
2022/07/27 03:58:14;;;;;;;;;;;15.70;99.90;;;;;;5076684;28;19904;-75
2022/07/27 04:00:40;;;;;;;;;;;15.70;99.90;;;;;;5090032;28;19911;-74
2022/07/27 04:03:05;;;;;;;;;;;15.60;99.90;;;;;;5096936;28;19904;-75
2022/07/27 04:05:31;;;;;;;;;;;15.60;99.90;;;;;;5096690;28;20006;-74
2022/07/27 04:07:56;;;;;;;;;;;15.70;99.90;;;;;;5096789;28;20336;-75
2022/07/27 04:10:22;;;;;;;;;;;15.70;99.90;;;;;;5085786;28;19957;-74
2022/07/27 04:12:48;;;;;;;;;;;15.70;99.90;;;;;;5076427;28;20266;-75
2022/07/27 04:15:13;;;;;;;;;;;15.80;99.90;;;;;;5076517;28;19999;-74
2022/07/27 04:17:39;;;;;;;;;;;15.80;99.90;;;;;;5077640;28;20003;-74
2022/07/27 04:20:05;;;;;;;;;;;15.80;99.90;;;;;;5096541;28;19904;-75
2022/07/27 04:22:31;;;;;;;;;;;15.90;99.90;;;;;;5096828;28;20330;-75
2022/07/27 04:24:56;;;;;;;;;;;15.80;99.90;;;;;;5096417;28;19961;-74
2022/07/27 04:27:22;;;;;;;;;;;15.80;99.90;;;;;;5096433;28;19953;-75
2022/07/27 04:29:47;;;;;;;;;;;15.80;99.90;;;;;;5093818;28;19924;-73
2022/07/27 04:32:13;;;;;;;;;;;15.80;99.90;;;;;;5096304;28;20020;-75
2022/07/27 04:34:39;;;;;;;;;;;15.80;99.90;;;;;;5096498;28;19904;-74
2022/07/27 04:37:05;;;;;;;;;;;15.80;99.90;;;;;;5096229;28;19904;-75
2022/07/27 04:39:30;;;;;;;;;;;15.80;99.90;;;;;;5079719;28;19915;-74
2022/07/27 04:41:56;;;;;;;;;;;15.80;99.90;;;;;;5075875;28;19904;-75
2022/07/27 04:44:21;;;;;;;;;;;15.90;99.90;;;;;;5076184;28;19908;-75
2022/07/27 04:46:47;;;;;;;;;;;15.90;99.90;;;;;;5095350;28;19908;-74
2022/07/27 04:49:13;;;;;;;;;;;15.90;99.90;;;;;;5095929;28;19957;-75
2022/07/27 04:51:41;;;;;;;;;;;16.00;99.90;;;;;;5095987;28;19970;-75
2022/07/27 04:54:06;;;;;;;;;;;16.00;99.90;;;;;;5096232;28;19911;-75
2022/07/27 04:56:32;;;;;;;;;;;16.00;99.90;;;;;;5094219;28;19907;-74
2022/07/27 04:58:57;;;;;;;;;;;16.00;99.90;;;;;;5096088;28;19911;-75
2022/07/27 05:01:24;;;;;;;;;;;16.10;99.90;;;;;;5095091;28;19911;-75
2022/07/27 05:03:50;;;;;;;;;;;16.10;99.90;;;;;;5095514;28;19908;-75
2022/07/27 05:06:16;;;;;;;;;;;16.10;99.90;;;;;;5081073;28;19961;-74
2022/07/27 05:08:41;;;;;;;;;;;16.10;99.90;;;;;;5075299;28;19999;-75
2022/07/27 05:11:07;;;;;;;;;;;16.10;99.90;;;;;;5075329;28;19904;-75
2022/07/27 05:13:34;;;;;;;;;;;16.10;99.90;;;;;;5075603;28;19911;-75
2022/07/27 05:16:00;;;;;;;;;;;16.10;99.90;;;;;;5087310;28;19934;-73
2022/07/27 05:18:26;;;;;;;;;;;16.10;99.90;;;;;;5077330;28;20392;-74
2022/07/27 05:20:51;;;;;;;;;;;16.10;99.90;;;;;;5095978;28;19908;-75
2022/07/27 05:23:17;;;;;;;;;;;16.10;99.90;;;;;;5095344;28;19904;-75
2022/07/27 05:25:42;;;;;;;;;;;16.00;99.90;;;;;;5067274;28;19951;-73
2022/07/27 05:28:09;;;;;;;;;;;16.00;99.90;;;;;;5074933;28;19994;-75
2022/07/27 05:30:35;;;;;;;;;;;16.00;99.90;;;;;;5074954;28;20388;-75
2022/07/27 05:33:01;;;;;;;;;;;16.00;99.90;;;;;;5075216;28;19908;-74
2022/07/27 05:35:26;;;;;;;;;;;16.00;99.90;;;;;;5081883;28;20368;-73
2022/07/27 05:37:52;;;;;;;;;;;16.10;99.90;;;;;;5095100;28;19904;-75
2022/07/27 05:40:17;;;;;;;;;;;16.20;99.90;;;;;;5095007;28;19911;-75
2022/07/27 05:42:43;;;;;;;;;;;16.20;99.90;;;;;;5094920;28;20002;-74
2022/07/27 05:45:09;;;;;;;;;;;16.30;99.90;;;;;;5090300;28;19908;-73
2022/07/27 05:47:35;;;;;;;;;;;16.40;99.90;;;;;;5074859;28;19912;-74
2022/07/27 05:50:00;;;;;;;;;;;16.50;99.90;;;;;;5074535;28;19912;-73
2022/07/27 05:52:26;;;;;;;;;;;16.50;99.90;;;;;;5074537;28;19995;-75
2022/07/27 05:54:52;;;;;;;;;;;16.60;99.90;;;;;;5076391;28;20329;-74
2022/07/27 05:57:17;;;;;;;;;;;16.60;99.90;;;;;;5094720;28;19904;-75
2022/07/27 05:59:43;;;;;;;;;;;16.70;99.90;;;;;;5094646;28;19994;-75
2022/07/27 06:02:08;;;;;;;;;;;16.70;99.90;;;;;;5094587;28;19970;-76
2022/07/27 06:04:34;;;;;;;;;;;16.70;99.90;;;;;;5076225;28;19912;-75
2022/07/27 06:09:44;;;;;;;;;;;16.80;99.90;;;;;;5074227;28;19922;-75
2022/07/27 06:12:09;;;;;;;;;;;16.90;99.90;;;;;;5074507;28;19904;-75
2022/07/27 06:14:35;;;;;;;;;;;17.00;99.90;;;;;;5073875;28;19904;-74
2022/07/27 06:17:00;;;;;;;;;;;17.00;99.90;;;;;;5093779;28;19961;-74
2022/07/27 06:19:26;;;;;;;;;;;17.00;99.90;;;;;;5094070;28;19981;-74
2022/07/27 06:21:51;;;;;;;;;;;17.10;99.90;;;;;;5094540;28;19911;-75
2022/07/27 06:24:17;;;;;;;;;;;17.20;99.90;;;;;;5094561;28;19987;-75
2022/07/27 06:26:43;;;;;;;;;;;17.20;99.90;;;;;;5077177;28;20318;-74
2022/07/27 06:29:08;;;;;;;;;;;17.20;99.90;;;;;;5074112;28;19923;-75
2022/07/27 06:31:34;;;;;;;;;;;17.20;99.90;;;;;;5073922;28;19904;-74
2022/07/27 06:34:00;;;;;;;;;;;17.30;99.90;;;;;;5074106;28;19908;-73
2022/07/27 06:36:25;;;;;;;;;;;17.30;99.90;;;;;;5094025;28;20283;-75
2022/07/27 06:38:51;;;;;;;;;;;17.30;99.90;;;;;;5093928;28;19949;-75
2022/07/27 06:41:16;;;;;;;;;;;17.30;99.90;;;;;;5094263;28;19995;-75
2022/07/27 06:43:42;;;;;;;;;;;17.30;99.90;;;;;;5093954;28;19958;-75
2022/07/27 06:46:11;;;;;;;;;;;17.30;99.90;;;;;;5075687;28;19939;-73
2022/07/27 06:48:37;;;;;;;;;;;17.30;99.90;;;;;;5073676;28;20004;-74
2022/07/27 06:51:03;;;;;;;;;;;17.30;99.90;;;;;;5073688;28;19940;-74
2022/07/27 06:53:28;;;;;;;;;;;17.40;99.90;;;;;;5074225;28;19911;-74
2022/07/27 06:55:54;;;;;;;;;;;17.40;99.90;;;;;;5089326;28;19962;-73
2022/07/27 06:58:19;;;;;;;;;;;17.50;99.90;;;;;;5093859;28;19908;-74
2022/07/27 07:00:46;;;;;;;;;;;17.50;99.90;;;;;;5093974;28;19947;-74
2022/07/27 07:03:11;;;;;;;;;;;17.60;99.90;;;;;;5093818;28;19990;-74
2022/07/27 07:05:44;;;;;;;;;;;17.60;99.90;;;;;;5080649;28;20091;-73
2022/07/27 07:08:10;;;;;;;;;;;17.70;99.90;;;;;;5074064;28;19914;-75
2022/07/27 07:10:37;;;;;;;;;;;17.80;99.90;;;;;;5056210;28;19996;-73
2022/07/27 07:13:03;;;;;;;;;;;17.80;99.90;;;;;;5073851;28;20253;-75
2022/07/27 07:15:29;;;;;;;;;;;17.90;99.90;;;;;;5085017;28;20020;-74
2022/07/27 07:17:54;;;;;;;;;;;18.00;99.90;;;;;;5093727;28;19987;-75
2022/07/27 07:20:20;;;;;;;;;;;18.20;99.90;;;;;;5093939;28;19908;-74
2022/07/27 07:22:46;;;;;;;;;;;18.30;99.90;;;;;;5094169;28;19948;-74
2022/07/27 07:25:12;;;;;;;;;;;18.30;99.90;;;;;;5080008;28;20003;-73
2022/07/27 07:27:37;;;;;;;;;;;18.40;99.90;;;;;;5077651;28;19999;-74
2022/07/27 07:30:03;;;;;;;;;;;18.40;99.90;;;;;;5077190;28;20042;-74
2022/07/27 07:32:29;;;;;;;;;;;18.50;99.90;;;;;;5077169;28;19954;-74
2022/07/27 07:34:55;;;;;;;;;;;18.60;99.90;;;;;;5088942;28;19912;-73
2022/07/27 07:37:21;;;;;;;;;;;18.60;99.90;;;;;;5097434;28;19908;-74
2022/07/27 07:39:46;;;;;;;;;;;18.60;99.90;;;;;;5097424;28;19904;-74
2022/07/27 07:42:12;;;;;;;;;;;18.60;99.90;;;;;;5097660;28;19903;-74
2022/07/27 07:44:38;;;;;;;;;;;18.60;99.90;;;;;;5088289;28;19908;-73
2022/07/27 07:47:03;;;;;;;;;;;18.70;99.90;;;;;;5076947;28;19982;-74
2022/07/27 07:49:29;;;;;;;;;;;18.80;99.90;;;;;;5076810;28;19908;-74
2022/07/27 07:51:55;;;;;;;;;;;18.90;99.90;;;;;;5076807;28;19904;-75
2022/07/27 07:54:20;;;;;;;;;;;19.00;99.90;;;;;;5082987;28;19915;-73
2022/07/27 07:56:46;;;;;;;;;;;19.10;99.90;;;;;;5097231;28;20376;-73
2022/07/27 07:59:11;;;;;;;;;;;19.20;99.90;;;;;;5097604;28;20272;-75
2022/07/27 08:01:37;;;;;;;;;;;19.30;99.90;;;;;;5096976;28;19904;-75
2022/07/27 08:04:03;;;;;;;;;;;19.40;99.90;;;;;;5093358;28;20264;-74
2022/07/27 08:06:28;;;;;;;;;;;19.50;99.90;;;;;;5076622;28;19916;-74
2022/07/27 08:08:54;;;;;;;;;;;19.40;99.90;;;;;;5076485;28;19908;-75
2022/07/27 08:11:20;;;;;;;;;;;19.60;99.90;;;;;;5077088;28;19908;-75
2022/07/27 08:13:45;;;;;;;;;;;19.60;99.90;;;;;;5083989;28;19926;-74
2022/07/27 08:16:11;;;;;;;;;;;19.60;99.90;;;;;;5096722;28;20364;-74
2022/07/27 08:18:36;;;;;;;;;;;19.60;99.90;;;;;;5089495;28;19931;-74
2022/07/27 08:21:02;;;;;;;;;;;19.70;99.90;;;;;;5094091;28;20371;-74
2022/07/27 08:23:28;;;;;;;;;;;19.80;99.90;;;;;;5091782;28;20364;-74
2022/07/27 08:25:53;;;;;;;;;;;19.90;99.90;;;;;;5082226;28;19908;-73
2022/07/27 08:28:19;;;;;;;;;;;20.10;99.90;;;;;;5107475;28;20423;-73
2022/07/27 08:30:45;;;;;;;;;;;20.30;99.90;;;;;;5078337;28;20311;-73
2022/07/27 08:33:10;;;;;;;;;;;20.40;99.90;;;;;;5091091;28;19916;-73
2022/07/27 08:35:36;;;;;;;;;;;20.50;99.90;;;;;;5085071;28;19911;-73
2022/07/27 08:38:04;;;;;;;;;;;20.50;99.90;;;;;;5095218;28;19995;-73
2022/07/27 08:40:29;;;;;;;;;;;20.60;99.90;;;;;;5094344;28;19930;-73
2022/07/27 08:42:55;;;;;;;;;;;20.70;99.90;;;;;;5080274;28;20280;-74
2022/07/27 08:45:20;;;;;;;;;;;20.80;99.90;;;;;;5086852;28;19908;-73
2022/07/27 08:47:46;;;;;;;;;;;20.90;99.90;;;;;;5094516;28;19907;-73
2022/07/27 08:50:29;;;;;;;;;;;20.90;99.90;;;;;;5087065;28;19954;-73
2022/07/27 08:53:05;;;;;;;;;;;21.00;99.90;;;;;;5092196;28;19908;-75
2022/07/27 08:55:31;;;;;;;;;;;21.00;99.90;;;;;;5095773;28;19908;-75
2022/07/27 08:57:57;;;;;;;;;;;21.00;99.90;;;;;;5095499;28;19919;-75
2022/07/27 09:00:23;;;;;;;;;;;21.10;99.90;;;;;;5095942;28;19908;-74
2022/07/27 09:02:49;;;;;;;;;;;21.10;99.90;;;;;;5079848;28;20002;-75
2022/07/27 09:05:15;;;;;;;;;;;21.20;99.90;;;;;;5085788;28;20320;-74
2022/07/27 09:07:40;;;;;;;;;;;21.20;99.90;;;;;;5095691;28;20006;-75
2022/07/27 09:10:06;;;;;;;;;;;21.30;99.90;;;;;;5095906;28;19961;-75
2022/07/27 09:12:32;;;;;;;;;;;21.60;99.90;;;;;;5082352;28;19915;-74
2022/07/27 09:15:12;;;;;;;;;;;21.80;99.90;;;;;;5075913;28;19905;-74
2022/07/27 09:17:39;;;;;;;;;;;21.90;99.90;;;;;;5075209;28;20418;-74
2022/07/27 09:20:06;;;;;;;;;;;22.00;99.90;;;;;;5075189;28;19944;-75
2022/07/27 09:22:39;;;;;;;;;;;22.00;99.90;;;;;;5088303;28;19908;-74
2022/07/27 09:25:04;;;;;;;;;;;21.90;99.90;;;;;;5095330;28;19904;-74
2022/07/27 09:27:30;;;;;;;;;;;21.90;99.90;;;;;;5095268;28;20399;-75
2022/07/27 09:30:06;;;;;;;;;;;22.00;99.90;;;;;;5095272;28;19998;-74
2022/07/27 09:32:32;;;;;;;;;;;22.10;99.90;;;;;;5082683;28;19999;-75
2022/07/27 09:34:57;;;;;;;;;;;22.20;99.90;;;;;;5075146;28;19948;-73
2022/07/27 09:37:24;;;;;;;;;;;22.30;99.90;;;;;;5087350;28;19939;-73
2022/07/27 09:39:49;;;;;;;;;;;22.40;99.90;;;;;;5089955;28;19908;-72
2022/07/27 09:42:15;;;;;;;;;;;22.60;99.90;;;;;;5090792;28;19970;-72
2022/07/27 09:44:41;;;;;;;;;;;22.80;99.90;;;;;;5080395;28;19922;-72
2022/07/27 09:47:19;;;;;;;;;;;22.90;99.90;;;;;;5085879;28;19907;-72
2022/07/27 09:49:45;;;;;;;;;;;23.00;99.90;;;;;;5080827;28;19918;-72
2022/07/27 09:52:20;;;;;;;;;;;23.10;99.90;;;;;;5075738;28;20264;-73
2022/07/27 09:54:46;;;;;;;;;;;23.20;98.80;;;;;;5074460;28;20282;-73
2022/07/27 09:57:12;;;;;;;;;;;23.20;98.30;;;;;;5074805;28;19904;-73
2022/07/27 09:59:38;;;;;;;;;;;23.10;99.20;;;;;;5075047;28;19904;-72
2022/07/27 10:02:05;;;;;;;;;;;23.10;98.30;;;;;;5089148;28;19908;-72
2022/07/27 10:04:31;;;;;;;;;;;23.10;98.80;;;;;;5094518;28;19915;-72
2022/07/27 10:06:57;;;;;;;;;;;23.10;98.50;;;;;;5084305;28;19908;-72
2022/07/27 10:09:23;;;;;;;;;;;23.00;97.90;;;;;;5083213;28;19912;-72
2022/07/27 10:11:48;;;;;;;;;;;23.00;98.60;;;;;;5088163;28;19995;-73
2022/07/27 10:14:15;;;;;;;;;;;23.00;97.90;;;;;;5085861;28;19907;-72
2022/07/27 10:16:41;;;;;;;;;;;23.00;97.80;;;;;;5084034;28;20378;-72
2022/07/27 10:19:22;;;;;;;;;;;23.10;98.00;;;;;;5087528;28;20241;-72
2022/07/27 10:21:48;;;;;;;;;;;23.20;98.10;;;;;;5090335;28;20436;-73
2022/07/27 10:24:40;;;;;;;;;;;23.30;97.70;;;;;;5082762;28;19995;-73
2022/07/27 10:27:19;;;;;;;;;;;23.40;97.20;;;;;;5079188;28;20473;-73
2022/07/27 10:29:46;;;;;;;;;;;23.50;94.70;;;;;;5083268;28;19913;-73
2022/07/27 10:32:12;;;;;;;;;;;23.50;94.30;;;;;;5073343;28;19915;-73
2022/07/27 10:34:38;;;;;;;;;;;23.50;94.90;;;;;;5101850;28;19908;-73
2022/07/27 10:37:15;;;;;;;;;;;23.40;96.30;;;;;;5093714;28;20378;-73
2022/07/27 10:39:42;;;;;;;;;;;23.50;94.70;;;;;;5076056;28;20418;-73
2022/07/27 10:42:27;;;;;;;;;;;23.40;93.30;;;;;;5084940;28;19908;-72
2022/07/27 10:44:57;;;;;;;;;;;23.50;94.40;;;;;;5078196;28;19908;-73
2022/07/27 10:47:27;;;;;;;;;;;23.60;93.30;;;;;;5094413;28;19961;-73
2022/07/27 10:50:12;;;;;;;;;;;23.50;93.50;;;;;;5066965;28;20377;-73
2022/07/27 10:52:39;;;;;;;;;;;23.40;93.90;;;;;;5067439;28;19912;-72
2022/07/27 10:55:04;;;;;;;;;;;23.30;93.70;;;;;;5083737;28;19908;-73
2022/07/27 10:57:30;;;;;;;;;;;23.30;93.30;;;;;;5088450;28;19981;-73
2022/07/27 10:59:56;;;;;;;;;;;23.30;94.10;;;;;;5082457;28;20419;-73
2022/07/27 11:02:36;;;;;;;;;;;23.40;94.30;;;;;;5098182;28;20252;-73
2022/07/27 11:05:03;;;;;;;;;;;23.40;93.80;;;;;;5079777;28;19919;-72
2022/07/27 11:07:28;;;;;;;;;;;23.50;93.50;;;;;;5088121;28;20002;-72
2022/07/27 11:09:54;;;;;;;;;;;23.60;93.20;;;;;;5079528;28;20031;-73
2022/07/27 11:12:20;;;;;;;;;;;23.60;93.20;;;;;;5097709;28;19908;-73
2022/07/27 11:14:50;;;;;;;;;;;23.70;92.40;;;;;;5089965;28;19913;-72
2022/07/27 11:17:18;;;;;;;;;;;23.70;93.00;;;;;;5080090;28;19959;-72
2022/07/27 11:19:44;;;;;;;;;;;23.60;93.60;;;;;;5088656;28;19908;-72
2022/07/27 11:22:10;;;;;;;;;;;23.50;92.90;;;;;;5097184;28;19953;-72
2022/07/27 11:24:35;;;;;;;;;;;23.50;93.10;;;;;;5097697;28;19904;-72
2022/07/27 11:27:02;;;;;;;;;;;23.50;94.50;;;;;;5097462;28;19908;-72
2022/07/27 11:29:31;;;;;;;;;;;23.60;93.60;;;;;;5095794;28;19919;-73
2022/07/27 11:31:59;;;;;;;;;;;23.60;92.60;;;;;;5080253;28;20292;-74
2022/07/27 11:34:25;;;;;;;;;;;23.50;91.20;;;;;;5076894;28;19958;-73
2022/07/27 11:36:51;;;;;;;;;;;23.50;92.30;;;;;;5077282;28;19908;-73
2022/07/27 11:39:26;;;;;;;;;;;23.50;92.20;;;;;;5059412;28;19950;-74
2022/07/27 11:41:55;;;;;;;;;;;23.50;91.40;;;;;;5093587;28;19912;-73
2022/07/27 11:44:21;;;;;;;;;;;23.40;92.10;;;;;;5097637;28;19911;-73
2022/07/27 11:46:47;;;;;;;;;;;23.30;92.50;;;;;;5096930;28;19908;-74
2022/07/27 11:49:13;;;;;;;;;;;23.30;92.20;;;;;;5097292;28;19907;-74
2022/07/27 11:51:42;;;;;;;;;;;23.20;92.70;;;;;;5082825;28;20002;-73
2022/07/27 11:54:10;;;;;;;;;;;23.30;93.40;;;;;;5059057;28;20360;-74
2022/07/27 11:56:37;;;;;;;;;;;23.40;91.50;;;;;;5076748;28;20276;-74
2022/07/27 11:59:04;;;;;;;;;;;23.30;91.30;;;;;;5077095;28;20011;-74
2022/07/27 12:01:32;;;;;;;;;;;23.30;91.50;;;;;;5089777;28;19915;-74
2022/07/27 12:04:14;;;;;;;;;;;23.10;91.60;;;;;;5062389;28;19909;-73
2022/07/27 12:06:41;;;;;;;;;;;23.10;91.60;;;;;;5076893;28;19915;-73
2022/07/27 12:09:08;;;;;;;;;;;23.10;91.70;;;;;;5076799;28;19908;-74
2022/07/27 12:11:52;;;;;;;;;;;23.00;91.20;;;;;;5089308;28;20423;-73
2022/07/27 12:14:18;;;;;;;;;;;23.00;91.70;;;;;;5097104;28;19908;-74
2022/07/27 12:16:44;;;;;;;;;;;23.00;92.20;;;;;;5096696;28;20345;-74
2022/07/27 12:19:10;;;;;;;;;;;23.00;93.00;;;;;;5097047;28;19961;-73
2022/07/27 12:21:36;;;;;;;;;;;23.10;91.30;;;;;;5064986;28;20262;-74
2022/07/27 12:24:01;;;;;;;;;;;23.10;91.80;;;;;;5058488;28;19919;-74
2022/07/27 12:26:27;;;;;;;;;;;23.00;92.10;;;;;;5076274;28;20360;-74
2022/07/27 12:29:05;;;;;;;;;;;23.10;91.60;;;;;;5076357;28;19915;-73
2022/07/27 12:31:32;;;;;;;;;;;23.10;92.30;;;;;;5088345;28;19961;-74
2022/07/27 12:33:58;;;;;;;;;;;23.30;91.60;;;;;;5096351;28;19904;-72
2022/07/27 12:36:25;;;;;;;;;;;23.40;92.30;;;;;;5078127;28;20317;-73
2022/07/27 12:38:51;;;;;;;;;;;23.60;91.50;;;;;;5096255;28;19916;-74
2022/07/27 12:41:28;;;;;;;;;;;23.60;91.60;;;;;;5083257;28;19927;-74
2022/07/27 12:44:07;;;;;;;;;;;24.00;92.40;;;;;;5076276;28;20006;-74
2022/07/27 12:46:32;;;;;;;;;;;24.40;91.20;;;;;;5075871;28;19908;-73
2022/07/27 12:48:58;;;;;;;;;;;24.60;91.00;;;;;;5075765;28;19946;-74
2022/07/27 12:51:23;;;;;;;;;;;24.80;89.40;;;;;;5089175;28;19903;-74
2022/07/27 12:53:49;;;;;;;;;;;24.80;87.70;;;;;;5096492;28;19908;-76
2022/07/27 12:56:14;;;;;;;;;;;24.50;86.50;;;;;;5077478;28;20272;-77
2022/07/27 12:58:56;;;;;;;;;;;24.20;85.20;;;;;;5095818;28;20315;-74
2022/07/27 13:01:21;;;;;;;;;;;23.90;86.60;;;;;;5094372;28;19927;-75
2022/07/27 13:03:47;;;;;;;;;;;23.70;85.30;;;;;;5077643;28;20364;-75
2022/07/27 13:06:13;;;;;;;;;;;23.60;86.40;;;;;;5095583;28;19912;-74
2022/07/27 13:08:38;;;;;;;;;;;23.50;88.70;;;;;;5095562;28;19904;-73
2022/07/27 13:11:04;;;;;;;;;;;23.40;87.90;;;;;;5093701;28;19915;-77
2022/07/27 13:13:30;;;;;;;;;;;23.40;87.90;;;;;;5084837;28;19918;-75
2022/07/27 13:15:55;;;;;;;;;;;23.50;88.80;;;;;;5083168;28;19914;-74
2022/07/27 13:18:21;;;;;;;;;;;23.70;87.40;;;;;;5088605;28;20364;-75
2022/07/27 13:20:46;;;;;;;;;;;23.70;88.90;;;;;;5075184;28;19905;-76
2022/07/27 13:23:12;;;;;;;;;;;23.50;85.90;;;;;;5056264;28;19912;-74
2022/07/27 13:25:38;;;;;;;;;;;23.50;87.10;;;;;;5057320;28;19944;-76
2022/07/27 13:28:03;;;;;;;;;;;23.30;86.70;;;;;;5078814;28;19915;-76
2022/07/27 13:30:29;;;;;;;;;;;23.20;88.40;;;;;;5094923;28;20364;-75
2022/07/27 13:32:54;;;;;;;;;;;23.10;90.30;;;;;;5077026;28;19911;-74
2022/07/27 13:35:20;;;;;;;;;;;23.00;90.30;;;;;;5095197;28;19957;-74
2022/07/27 13:37:46;;;;;;;;;;;23.00;89.10;;;;;;5090135;28;19908;-74
2022/07/27 13:40:12;;;;;;;;;;;22.80;89.60;;;;;;5095153;28;19904;-75
2022/07/27 13:42:37;;;;;;;;;;;22.80;89.80;;;;;;5095527;28;19904;-76
2022/07/27 13:45:04;;;;;;;;;;;22.70;90.40;;;;;;5095297;28;19911;-74
2022/07/27 13:47:29;;;;;;;;;;;22.70;90.90;;;;;;5095357;28;19911;-74
2022/07/27 13:49:55;;;;;;;;;;;22.50;90.50;;;;;;5075756;28;20283;-74
2022/07/27 13:52:21;;;;;;;;;;;22.50;90.60;;;;;;5074635;28;19954;-76
2022/07/27 13:54:46;;;;;;;;;;;22.50;90.00;;;;;;5075161;28;19917;-75
2022/07/27 13:57:12;;;;;;;;;;;22.40;90.30;;;;;;5056904;28;19908;-75
2022/07/27 13:59:37;;;;;;;;;;;22.30;89.50;;;;;;5069651;28;19908;-74
2022/07/27 14:02:03;;;;;;;;;;;22.30;88.70;;;;;;5074715;28;19999;-74
2022/07/27 14:04:29;;;;;;;;;;;22.20;89.40;;;;;;5074248;28;19916;-75
2022/07/27 14:06:54;;;;;;;;;;;22.20;89.60;;;;;;5074595;28;19916;-74
2022/07/27 14:10:30;;;;;;;;;;;22.20;89.70;;;;;;5087602;28;19938;-74
2022/07/27 14:12:07;;;;;;;;;;;22.20;89.30;;;;;;5093979;28;19961;-73
2022/07/27 14:14:32;;;;;;;;;;;22.20;90.00;;;;;;5090621;28;19908;-75
2022/07/27 14:16:58;;;;;;;;;;;22.20;90.10;;;;;;5074211;28;20292;-74
2022/07/27 14:19:23;;;;;;;;;;;22.10;90.40;;;;;;5087770;28;19961;-75